sensor_id;sensor_type;location;lat;lon;timestamp;temperature;humidity
7155;DHT22;3619;53.784;10.440;2023-05-29T00:00:09;10.90;99.90
7155;DHT22;3619;53.784;10.440;2023-05-29T00:02:37;11.00;99.90
7155;DHT22;3619;53.784;10.440;2023-05-29T00:05:05;10.90;99.90
7155;DHT22;3619;53.784;10.440;2023-05-29T00:07:33;10.70;99.90
7155;DHT22;3619;53.784;10.440;2023-05-29T00:10:00;10.60;99.90
7155;DHT22;3619;53.784;10.440;2023-05-29T00:12:26;10.50;99.90
7155;DHT22;3619;53.784;10.440;2023-05-29T00:14:54;10.40;99.90
7155;DHT22;3619;53.784;10.440;2023-05-29T00:17:20;10.30;99.90
7155;DHT22;3619;53.784;10.440;2023-05-29T00:19:47;10.20;99.90
7155;DHT22;3619;53.784;10.440;2023-05-29T00:22:14;10.20;99.90
7155;DHT22;3619;53.784;10.440;2023-05-29T00:24:42;10.20;99.90
7155;DHT22;3619;53.784;10.440;2023-05-29T00:27:09;10.10;99.90
7155;DHT22;3619;53.784;10.440;2023-05-29T00:29:37;10.10;99.90
7155;DHT22;3619;53.784;10.440;2023-05-29T00:32:06;10.10;99.90
7155;DHT22;3619;53.784;10.440;2023-05-29T00:34:33;10.10;99.90
7155;DHT22;3619;53.784;10.440;2023-05-29T00:36:59;10.10;99.90
7155;DHT22;3619;53.784;10.440;2023-05-29T00:39:27;10.20;99.90
7155;DHT22;3619;53.784;10.440;2023-05-29T00:41:55;10.10;99.90
7155;DHT22;3619;53.784;10.440;2023-05-29T00:44:22;10.00;99.90
7155;DHT22;3619;53.784;10.440;2023-05-29T00:46:52;9.90;99.90
7155;DHT22;3619;53.784;10.440;2023-05-29T00:49:20;9.80;99.90
7155;DHT22;3619;53.784;10.440;2023-05-29T00:51:48;9.80;99.90
7155;DHT22;3619;53.784;10.440;2023-05-29T00:54:21;9.70;99.90
7155;DHT22;3619;53.784;10.440;2023-05-29T00:56:48;9.60;99.90
7155;DHT22;3619;53.784;10.440;2023-05-29T00:59:16;9.60;99.90
7155;DHT22;3619;53.784;10.440;2023-05-29T01:01:44;9.50;99.90
7155;DHT22;3619;53.784;10.440;2023-05-29T01:04:11;9.40;99.90
7155;DHT22;3619;53.784;10.440;2023-05-29T01:06:40;9.40;99.90
7155;DHT22;3619;53.784;10.440;2023-05-29T01:09:07;9.40;99.90
7155;DHT22;3619;53.784;10.440;2023-05-29T01:11:44;9.30;99.90
7155;DHT22;3619;53.784;10.440;2023-05-29T01:14:20;9.20;99.90
7155;DHT22;3619;53.784;10.440;2023-05-29T01:16:59;9.20;99.90
7155;DHT22;3619;53.784;10.440;2023-05-29T01:19:39;9.10;99.90
7155;DHT22;3619;53.784;10.440;2023-05-29T01:22:12;9.10;99.90
7155;DHT22;3619;53.784;10.440;2023-05-29T01:24:49;9.10;99.90
7155;DHT22;3619;53.784;10.440;2023-05-29T01:27:19;9.00;99.90
7155;DHT22;3619;53.784;10.440;2023-05-29T01:29:49;9.00;99.90
7155;DHT22;3619;53.784;10.440;2023-05-29T01:32:18;9.00;99.90
7155;DHT22;3619;53.784;10.440;2023-05-29T01:34:47;8.90;99.90
7155;DHT22;3619;53.784;10.440;2023-05-29T01:37:14;8.90;99.90
7155;DHT22;3619;53.784;10.440;2023-05-29T01:39:45;8.80;99.90
7155;DHT22;3619;53.784;10.440;2023-05-29T01:42:18;8.70;99.90
7155;DHT22;3619;53.784;10.440;2023-05-29T01:44:45;8.70;99.90
7155;DHT22;3619;53.784;10.440;2023-05-29T01:47:13;8.60;99.90
7155;DHT22;3619;53.784;10.440;2023-05-29T01:49:41;8.50;99.90
7155;DHT22;3619;53.784;10.440;2023-05-29T01:52:10;8.50;99.90
7155;DHT22;3619;53.784;10.440;2023-05-29T01:54:36;8.40;99.90
7155;DHT22;3619;53.784;10.440;2023-05-29T01:57:04;8.40;99.90
7155;DHT22;3619;53.784;10.440;2023-05-29T01:59:35;8.40;99.90
7155;DHT22;3619;53.784;10.440;2023-05-29T02:02:06;8.50;99.90
7155;DHT22;3619;53.784;10.440;2023-05-29T02:04:32;8.50;99.90
7155;DHT22;3619;53.784;10.440;2023-05-29T02:07:01;8.50;99.90
7155;DHT22;3619;53.784;10.440;2023-05-29T02:09:28;8.50;99.90
7155;DHT22;3619;53.784;10.440;2023-05-29T02:11:54;8.50;99.90
7155;DHT22;3619;53.784;10.440;2023-05-29T02:14:21;8.50;99.90
7155;DHT22;3619;53.784;10.440;2023-05-29T02:16:51;8.40;99.90
7155;DHT22;3619;53.784;10.440;2023-05-29T02:19:19;8.40;99.90
7155;DHT22;3619;53.784;10.440;2023-05-29T02:21:47;8.40;99.90
7155;DHT22;3619;53.784;10.440;2023-05-29T02:24:14;8.30;99.90
7155;DHT22;3619;53.784;10.440;2023-05-29T02:26:41;8.30;99.90
7155;DHT22;3619;53.784;10.440;2023-05-29T02:29:08;8.20;99.90
7155;DHT22;3619;53.784;10.440;2023-05-29T02:31:36;8.20;99.90
7155;DHT22;3619;53.784;10.440;2023-05-29T02:34:04;8.10;99.90
7155;DHT22;3619;53.784;10.440;2023-05-29T02:36:31;8.10;99.90
7155;DHT22;3619;53.784;10.440;2023-05-29T02:38:58;8.10;99.90
7155;DHT22;3619;53.784;10.440;2023-05-29T02:41:24;8.00;99.90
7155;DHT22;3619;53.784;10.440;2023-05-29T02:43:51;7.90;99.90
7155;DHT22;3619;53.784;10.440;2023-05-29T02:46:18;7.90;99.90
7155;DHT22;3619;53.784;10.440;2023-05-29T02:48:45;7.70;99.90
7155;DHT22;3619;53.784;10.440;2023-05-29T02:51:16;7.70;99.90
7155;DHT22;3619;53.784;10.440;2023-05-29T02:53:42;7.60;99.90
7155;DHT22;3619;53.784;10.440;2023-05-29T02:56:09;7.60;99.90
7155;DHT22;3619;53.784;10.440;2023-05-29T02:58:37;7.60;99.90
7155;DHT22;3619;53.784;10.440;2023-05-29T03:01:04;7.50;99.90
7155;DHT22;3619;53.784;10.440;2023-05-29T03:03:31;7.50;99.90
7155;DHT22;3619;53.784;10.440;2023-05-29T03:05:57;7.40;99.90
7155;DHT22;3619;53.784;10.440;2023-05-29T03:08:27;7.30;99.90
7155;DHT22;3619;53.784;10.440;2023-05-29T03:10:54;7.30;99.90
7155;DHT22;3619;53.784;10.440;2023-05-29T03:13:22;7.30;99.90
7155;DHT22;3619;53.784;10.440;2023-05-29T03:15:49;7.20;99.90
7155;DHT22;3619;53.784;10.440;2023-05-29T03:18:16;7.20;99.90
7155;DHT22;3619;53.784;10.440;2023-05-29T03:20:43;7.20;99.90
7155;DHT22;3619;53.784;10.440;2023-05-29T03:23:10;7.10;99.90
7155;DHT22;3619;53.784;10.440;2023-05-29T03:25:40;7.10;99.90
7155;DHT22;3619;53.784;10.440;2023-05-29T03:28:08;7.10;99.90
7155;DHT22;3619;53.784;10.440;2023-05-29T03:30:35;7.00;99.90
7155;DHT22;3619;53.784;10.440;2023-05-29T03:33:02;7.10;99.90
7155;DHT22;3619;53.784;10.440;2023-05-29T03:35:29;7.10;99.90
7155;DHT22;3619;53.784;10.440;2023-05-29T03:37:56;7.10;99.90
7155;DHT22;3619;53.784;10.440;2023-05-29T03:40:23;7.10;99.90
7155;DHT22;3619;53.784;10.440;2023-05-29T03:42:51;7.10;99.90
7155;DHT22;3619;53.784;10.440;2023-05-29T03:45:19;7.20;99.90
7155;DHT22;3619;53.784;10.440;2023-05-29T03:47:46;7.20;99.90
7155;DHT22;3619;53.784;10.440;2023-05-29T03:50:12;7.20;99.90
7155;DHT22;3619;53.784;10.440;2023-05-29T03:52:41;7.20;99.90
7155;DHT22;3619;53.784;10.440;2023-05-29T03:55:09;7.30;99.90
7155;DHT22;3619;53.784;10.440;2023-05-29T03:57:38;7.30;99.90
7155;DHT22;3619;53.784;10.440;2023-05-29T04:00:08;7.30;99.90
7155;DHT22;3619;53.784;10.440;2023-05-29T04:02:36;7.30;99.90
7155;DHT22;3619;53.784;10.440;2023-05-29T04:05:04;7.40;99.90
7155;DHT22;3619;53.784;10.440;2023-05-29T04:07:31;7.30;99.90
7155;DHT22;3619;53.784;10.440;2023-05-29T04:09:58;7.40;99.90
7155;DHT22;3619;53.784;10.440;2023-05-29T04:12:25;7.40;99.90
7155;DHT22;3619;53.784;10.440;2023-05-29T04:14:52;7.40;99.90
7155;DHT22;3619;53.784;10.440;2023-05-29T04:17:24;7.40;99.90
7155;DHT22;3619;53.784;10.440;2023-05-29T04:19:51;7.50;99.90
7155;DHT22;3619;53.784;10.440;2023-05-29T04:22:18;7.50;99.90
7155;DHT22;3619;53.784;10.440;2023-05-29T04:24:45;7.60;99.90
7155;DHT22;3619;53.784;10.440;2023-05-29T04:27:12;7.60;99.90
7155;DHT22;3619;53.784;10.440;2023-05-29T04:29:39;7.60;99.90
7155;DHT22;3619;53.784;10.440;2023-05-29T04:32:08;7.60;99.90
7155;DHT22;3619;53.784;10.440;2023-05-29T04:34:38;7.70;99.90
7155;DHT22;3619;53.784;10.440;2023-05-29T04:37:06;7.80;99.90
7155;DHT22;3619;53.784;10.440;2023-05-29T04:39:33;7.80;99.90
7155;DHT22;3619;53.784;10.440;2023-05-29T04:41:59;7.80;99.90
7155;DHT22;3619;53.784;10.440;2023-05-29T04:44:26;7.90;99.90
7155;DHT22;3619;53.784;10.440;2023-05-29T04:46:54;7.90;99.90
7155;DHT22;3619;53.784;10.440;2023-05-29T04:49:22;8.00;99.90
7155;DHT22;3619;53.784;10.440;2023-05-29T04:51:50;8.10;99.90
7155;DHT22;3619;53.784;10.440;2023-05-29T04:54:18;8.20;99.90
7155;DHT22;3619;53.784;10.440;2023-05-29T04:56:45;8.30;99.90
7155;DHT22;3619;53.784;10.440;2023-05-29T04:59:13;8.40;99.90
7155;DHT22;3619;53.784;10.440;2023-05-29T05:01:40;8.50;99.90
7155;DHT22;3619;53.784;10.440;2023-05-29T05:04:08;8.60;99.90
7155;DHT22;3619;53.784;10.440;2023-05-29T05:06:39;8.60;99.90
7155;DHT22;3619;53.784;10.440;2023-05-29T05:09:08;8.60;99.90
7155;DHT22;3619;53.784;10.440;2023-05-29T05:11:35;8.60;99.90
7155;DHT22;3619;53.784;10.440;2023-05-29T05:14:04;8.50;99.90
7155;DHT22;3619;53.784;10.440;2023-05-29T05:16:31;8.60;99.90
7155;DHT22;3619;53.784;10.440;2023-05-29T05:18:58;8.80;99.90
7155;DHT22;3619;53.784;10.440;2023-05-29T05:21:25;8.70;99.90
7155;DHT22;3619;53.784;10.440;2023-05-29T05:23:52;8.90;99.90
7155;DHT22;3619;53.784;10.440;2023-05-29T05:26:24;8.90;99.90
7155;DHT22;3619;53.784;10.440;2023-05-29T05:28:52;9.00;99.90
7155;DHT22;3619;53.784;10.440;2023-05-29T05:31:18;9.00;99.90
7155;DHT22;3619;53.784;10.440;2023-05-29T05:33:47;9.00;99.90
7155;DHT22;3619;53.784;10.440;2023-05-29T05:36:14;9.00;99.90
7155;DHT22;3619;53.784;10.440;2023-05-29T05:38:43;9.10;99.90
7155;DHT22;3619;53.784;10.440;2023-05-29T05:41:09;9.10;99.90
7155;DHT22;3619;53.784;10.440;2023-05-29T05:43:38;9.30;99.90
7155;DHT22;3619;53.784;10.440;2023-05-29T05:46:05;9.50;99.90
7155;DHT22;3619;53.784;10.440;2023-05-29T05:48:32;9.50;99.90
7155;DHT22;3619;53.784;10.440;2023-05-29T05:50:58;9.70;99.90
7155;DHT22;3619;53.784;10.440;2023-05-29T05:53:28;9.80;99.90
7155;DHT22;3619;53.784;10.440;2023-05-29T05:55:55;9.90;99.90
7155;DHT22;3619;53.784;10.440;2023-05-29T05:58:22;10.00;99.90
7155;DHT22;3619;53.784;10.440;2023-05-29T06:00:50;10.30;99.90
7155;DHT22;3619;53.784;10.440;2023-05-29T06:03:18;10.50;99.90
7155;DHT22;3619;53.784;10.440;2023-05-29T06:05:47;10.50;99.90
7155;DHT22;3619;53.784;10.440;2023-05-29T06:08:13;10.60;99.90
7155;DHT22;3619;53.784;10.440;2023-05-29T06:10:42;10.70;99.90
7155;DHT22;3619;53.784;10.440;2023-05-29T06:13:09;10.70;99.90
7155;DHT22;3619;53.784;10.440;2023-05-29T06:15:36;10.80;99.90
7155;DHT22;3619;53.784;10.440;2023-05-29T06:18:04;10.90;99.90
7155;DHT22;3619;53.784;10.440;2023-05-29T06:20:31;11.10;99.90
7155;DHT22;3619;53.784;10.440;2023-05-29T06:22:58;11.10;99.90
7155;DHT22;3619;53.784;10.440;2023-05-29T06:25:24;11.00;99.90
7155;DHT22;3619;53.784;10.440;2023-05-29T06:27:58;11.00;99.90
7155;DHT22;3619;53.784;10.440;2023-05-29T06:30:28;10.90;99.90
7155;DHT22;3619;53.784;10.440;2023-05-29T06:32:55;10.70;99.90
7155;DHT22;3619;53.784;10.440;2023-05-29T06:35:25;10.70;99.90
7155;DHT22;3619;53.784;10.440;2023-05-29T06:37:52;10.80;99.90
7155;DHT22;3619;53.784;10.440;2023-05-29T06:40:19;11.00;99.90
7155;DHT22;3619;53.784;10.440;2023-05-29T06:42:47;11.20;99.90
7155;DHT22;3619;53.784;10.440;2023-05-29T06:45:16;11.70;99.90
7155;DHT22;3619;53.784;10.440;2023-05-29T06:47:43;11.60;99.90
7155;DHT22;3619;53.784;10.440;2023-05-29T06:50:10;11.50;99.90
7155;DHT22;3619;53.784;10.440;2023-05-29T06:52:40;11.50;99.90
7155;DHT22;3619;53.784;10.440;2023-05-29T06:55:10;11.40;99.90
7155;DHT22;3619;53.784;10.440;2023-05-29T06:57:36;11.30;99.90
7155;DHT22;3619;53.784;10.440;2023-05-29T07:00:04;11.50;99.90
7155;DHT22;3619;53.784;10.440;2023-05-29T07:02:31;11.50;99.90
7155;DHT22;3619;53.784;10.440;2023-05-29T07:05:03;11.50;99.90
7155;DHT22;3619;53.784;10.440;2023-05-29T07:07:30;11.60;99.90
7155;DHT22;3619;53.784;10.440;2023-05-29T07:09:58;11.80;99.90
7155;DHT22;3619;53.784;10.440;2023-05-29T07:12:26;11.90;99.90
7155;DHT22;3619;53.784;10.440;2023-05-29T07:14:52;11.70;99.90
7155;DHT22;3619;53.784;10.440;2023-05-29T07:17:19;11.50;99.90
7155;DHT22;3619;53.784;10.440;2023-05-29T07:19:46;11.50;99.90
7155;DHT22;3619;53.784;10.440;2023-05-29T07:22:14;11.60;99.90
7155;DHT22;3619;53.784;10.440;2023-05-29T07:24:41;11.80;99.90
7155;DHT22;3619;53.784;10.440;2023-05-29T07:27:09;12.00;99.90
7155;DHT22;3619;53.784;10.440;2023-05-29T07:29:36;12.10;99.90
7155;DHT22;3619;53.784;10.440;2023-05-29T07:32:03;12.00;99.90
7155;DHT22;3619;53.784;10.440;2023-05-29T07:34:30;12.00;99.90
7155;DHT22;3619;53.784;10.440;2023-05-29T07:36:57;12.00;99.90
7155;DHT22;3619;53.784;10.440;2023-05-29T07:39:25;12.20;99.90
7155;DHT22;3619;53.784;10.440;2023-05-29T07:42:01;12.50;99.90
7155;DHT22;3619;53.784;10.440;2023-05-29T07:44:29;12.60;99.90
7155;DHT22;3619;53.784;10.440;2023-05-29T07:46:56;12.70;99.90
7155;DHT22;3619;53.784;10.440;2023-05-29T07:49:23;12.50;99.90
7155;DHT22;3619;53.784;10.440;2023-05-29T07:51:50;12.70;99.90
7155;DHT22;3619;53.784;10.440;2023-05-29T07:54:17;12.70;99.90
7155;DHT22;3619;53.784;10.440;2023-05-29T07:56:46;12.50;99.90
7155;DHT22;3619;53.784;10.440;2023-05-29T07:59:13;12.70;99.90
7155;DHT22;3619;53.784;10.440;2023-05-29T08:01:41;13.00;99.90
7155;DHT22;3619;53.784;10.440;2023-05-29T08:04:09;13.00;99.90
7155;DHT22;3619;53.784;10.440;2023-05-29T08:06:36;13.10;99.90
7155;DHT22;3619;53.784;10.440;2023-05-29T08:09:03;13.30;99.90
7155;DHT22;3619;53.784;10.440;2023-05-29T08:11:31;13.30;99.90
7155;DHT22;3619;53.784;10.440;2023-05-29T08:13:58;13.20;99.90
7155;DHT22;3619;53.784;10.440;2023-05-29T08:16:26;13.10;99.90
7155;DHT22;3619;53.784;10.440;2023-05-29T08:18:55;13.20;99.90
7155;DHT22;3619;53.784;10.440;2023-05-29T08:21:21;13.20;99.90
7155;DHT22;3619;53.784;10.440;2023-05-29T08:23:50;13.30;99.90
7155;DHT22;3619;53.784;10.440;2023-05-29T08:26:18;13.30;99.90
7155;DHT22;3619;53.784;10.440;2023-05-29T08:28:46;13.30;99.90
7155;DHT22;3619;53.784;10.440;2023-05-29T08:31:13;13.20;99.90
7155;DHT22;3619;53.784;10.440;2023-05-29T08:33:40;13.30;99.90
7155;DHT22;3619;53.784;10.440;2023-05-29T08:36:09;13.30;99.90
7155;DHT22;3619;53.784;10.440;2023-05-29T08:38:36;13.50;99.90
7155;DHT22;3619;53.784;10.440;2023-05-29T08:41:04;13.60;99.90
7155;DHT22;3619;53.784;10.440;2023-05-29T08:43:34;13.60;99.90
7155;DHT22;3619;53.784;10.440;2023-05-29T08:46:02;13.50;99.90
7155;DHT22;3619;53.784;10.440;2023-05-29T08:48:31;13.70;99.90
7155;DHT22;3619;53.784;10.440;2023-05-29T08:51:01;13.60;99.90
7155;DHT22;3619;53.784;10.440;2023-05-29T08:53:30;13.80;99.90
7155;DHT22;3619;53.784;10.440;2023-05-29T08:55:58;14.00;99.90
7155;DHT22;3619;53.784;10.440;2023-05-29T08:58:24;14.10;99.90
7155;DHT22;3619;53.784;10.440;2023-05-29T09:00:52;14.00;99.90
7155;DHT22;3619;53.784;10.440;2023-05-29T09:03:20;14.00;99.90
7155;DHT22;3619;53.784;10.440;2023-05-29T09:05:48;13.90;99.90
7155;DHT22;3619;53.784;10.440;2023-05-29T09:08:15;14.10;99.90
7155;DHT22;3619;53.784;10.440;2023-05-29T09:10:45;14.20;99.90
7155;DHT22;3619;53.784;10.440;2023-05-29T09:13:12;14.20;99.90
7155;DHT22;3619;53.784;10.440;2023-05-29T09:15:41;14.00;99.90
7155;DHT22;3619;53.784;10.440;2023-05-29T09:18:10;14.30;99.90
7155;DHT22;3619;53.784;10.440;2023-05-29T09:20:37;14.30;99.90
7155;DHT22;3619;53.784;10.440;2023-05-29T09:23:05;14.50;99.90
7155;DHT22;3619;53.784;10.440;2023-05-29T09:25:35;14.70;99.90
7155;DHT22;3619;53.784;10.440;2023-05-29T09:28:32;14.70;99.90
7155;DHT22;3619;53.784;10.440;2023-05-29T09:31:06;14.90;99.90
7155;DHT22;3619;53.784;10.440;2023-05-29T09:33:48;14.90;99.90
7155;DHT22;3619;53.784;10.440;2023-05-29T09:36:20;15.00;99.90
7155;DHT22;3619;53.784;10.440;2023-05-29T09:38:47;14.60;99.90
7155;DHT22;3619;53.784;10.440;2023-05-29T09:41:20;14.70;99.90
7155;DHT22;3619;53.784;10.440;2023-05-29T09:43:49;14.80;99.90
7155;DHT22;3619;53.784;10.440;2023-05-29T09:46:19;14.90;99.90
7155;DHT22;3619;53.784;10.440;2023-05-29T09:48:46;14.90;99.90
7155;DHT22;3619;53.784;10.440;2023-05-29T09:51:22;14.90;99.90
7155;DHT22;3619;53.784;10.440;2023-05-29T09:53:49;15.10;99.90
7155;DHT22;3619;53.784;10.440;2023-05-29T09:56:17;15.20;99.90
7155;DHT22;3619;53.784;10.440;2023-05-29T09:58:44;15.60;99.90
7155;DHT22;3619;53.784;10.440;2023-05-29T10:01:14;15.70;99.90
7155;DHT22;3619;53.784;10.440;2023-05-29T10:03:43;15.80;99.90
7155;DHT22;3619;53.784;10.440;2023-05-29T10:06:11;15.80;99.90
7155;DHT22;3619;53.784;10.440;2023-05-29T10:08:45;15.70;99.90
7155;DHT22;3619;53.784;10.440;2023-05-29T10:11:15;15.80;99.90
7155;DHT22;3619;53.784;10.440;2023-05-29T10:13:42;16.00;99.90
7155;DHT22;3619;53.784;10.440;2023-05-29T10:16:19;16.00;99.90
7155;DHT22;3619;53.784;10.440;2023-05-29T10:18:50;16.00;99.90
7155;DHT22;3619;53.784;10.440;2023-05-29T10:21:21;15.80;99.90
7155;DHT22;3619;53.784;10.440;2023-05-29T10:23:49;15.80;99.90
7155;DHT22;3619;53.784;10.440;2023-05-29T10:26:20;15.70;99.90
7155;DHT22;3619;53.784;10.440;2023-05-29T10:28:55;15.90;99.90
7155;DHT22;3619;53.784;10.440;2023-05-29T10:31:30;15.90;99.90
7155;DHT22;3619;53.784;10.440;2023-05-29T10:34:13;16.10;99.90
7155;DHT22;3619;53.784;10.440;2023-05-29T10:36:44;16.10;99.90
7155;DHT22;3619;53.784;10.440;2023-05-29T10:39:13;16.10;99.90
7155;DHT22;3619;53.784;10.440;2023-05-29T10:41:40;16.20;99.90
7155;DHT22;3619;53.784;10.440;2023-05-29T10:47:08;16.80;99.90
7155;DHT22;3619;53.784;10.440;2023-05-29T10:49:38;16.80;99.90
7155;DHT22;3619;53.784;10.440;2023-05-29T10:52:05;16.50;99.90
7155;DHT22;3619;53.784;10.440;2023-05-29T10:54:51;16.40;99.90
7155;DHT22;3619;53.784;10.440;2023-05-29T10:57:21;16.10;99.90
7155;DHT22;3619;53.784;10.440;2023-05-29T10:59:48;15.90;99.90
7155;DHT22;3619;53.784;10.440;2023-05-29T11:02:22;16.10;99.90
7155;DHT22;3619;53.784;10.440;2023-05-29T11:05:04;16.10;99.90
7155;DHT22;3619;53.784;10.440;2023-05-29T11:07:34;16.40;99.90
7155;DHT22;3619;53.784;10.440;2023-05-29T11:10:13;16.70;99.90
7155;DHT22;3619;53.784;10.440;2023-05-29T11:12:58;16.70;99.90
7155;DHT22;3619;53.784;10.440;2023-05-29T11:15:51;16.40;99.90
7155;DHT22;3619;53.784;10.440;2023-05-29T11:21:53;16.40;99.90
7155;DHT22;3619;53.784;10.440;2023-05-29T11:24:24;16.50;99.90
7155;DHT22;3619;53.784;10.440;2023-05-29T11:26:53;16.40;99.90
7155;DHT22;3619;53.784;10.440;2023-05-29T11:29:24;16.40;99.90
7155;DHT22;3619;53.784;10.440;2023-05-29T11:31:57;16.50;99.90
7155;DHT22;3619;53.784;10.440;2023-05-29T11:34:27;16.50;99.90
7155;DHT22;3619;53.784;10.440;2023-05-29T11:36:58;16.60;99.90
7155;DHT22;3619;53.784;10.440;2023-05-29T11:39:30;16.60;99.90
7155;DHT22;3619;53.784;10.440;2023-05-29T11:41:57;16.50;99.90
7155;DHT22;3619;53.784;10.440;2023-05-29T11:44:24;16.70;99.90
7155;DHT22;3619;53.784;10.440;2023-05-29T11:47:02;16.90;99.90
7155;DHT22;3619;53.784;10.440;2023-05-29T11:49:32;17.00;99.90
7155;DHT22;3619;53.784;10.440;2023-05-29T11:52:07;17.00;99.90
7155;DHT22;3619;53.784;10.440;2023-05-29T11:54:36;17.00;99.90
7155;DHT22;3619;53.784;10.440;2023-05-29T11:57:10;17.00;99.90
7155;DHT22;3619;53.784;10.440;2023-05-29T11:59:36;16.90;99.90
7155;DHT22;3619;53.784;10.440;2023-05-29T12:02:12;17.00;99.90
7155;DHT22;3619;53.784;10.440;2023-05-29T12:05:01;17.20;99.90
7155;DHT22;3619;53.784;10.440;2023-05-29T12:07:30;17.40;99.90
7155;DHT22;3619;53.784;10.440;2023-05-29T12:10:08;17.30;99.90
7155;DHT22;3619;53.784;10.440;2023-05-29T12:12:38;17.20;99.90
7155;DHT22;3619;53.784;10.440;2023-05-29T12:15:10;17.30;99.90
7155;DHT22;3619;53.784;10.440;2023-05-29T12:17:37;17.50;99.90
7155;DHT22;3619;53.784;10.440;2023-05-29T12:20:08;17.60;99.90
7155;DHT22;3619;53.784;10.440;2023-05-29T12:22:39;17.70;99.90
7155;DHT22;3619;53.784;10.440;2023-05-29T12:25:10;17.70;99.90
7155;DHT22;3619;53.784;10.440;2023-05-29T12:27:39;17.70;99.90
7155;DHT22;3619;53.784;10.440;2023-05-29T12:30:25;17.80;99.90
7155;DHT22;3619;53.784;10.440;2023-05-29T12:32:54;18.00;99.90
7155;DHT22;3619;53.784;10.440;2023-05-29T12:35:27;18.30;99.90
7155;DHT22;3619;53.784;10.440;2023-05-29T12:37:56;18.30;99.90
7155;DHT22;3619;53.784;10.440;2023-05-29T12:40:24;18.30;99.90
7155;DHT22;3619;53.784;10.440;2023-05-29T12:42:54;18.60;99.90
7155;DHT22;3619;53.784;10.440;2023-05-29T12:45:23;18.60;99.90
7155;DHT22;3619;53.784;10.440;2023-05-29T12:47:56;18.60;99.90
7155;DHT22;3619;53.784;10.440;2023-05-29T12:50:25;18.20;99.90
7155;DHT22;3619;53.784;10.440;2023-05-29T12:52:55;18.00;99.90
7155;DHT22;3619;53.784;10.440;2023-05-29T12:55:22;18.00;99.90
7155;DHT22;3619;53.784;10.440;2023-05-29T12:57:49;18.20;99.90
7155;DHT22;3619;53.784;10.440;2023-05-29T13:00:16;18.20;99.90
7155;DHT22;3619;53.784;10.440;2023-05-29T13:02:44;18.20;99.90
7155;DHT22;3619;53.784;10.440;2023-05-29T13:05:11;18.20;99.90
7155;DHT22;3619;53.784;10.440;2023-05-29T13:07:38;18.00;99.90
7155;DHT22;3619;53.784;10.440;2023-05-29T13:10:08;18.20;99.90
7155;DHT22;3619;53.784;10.440;2023-05-29T13:12:37;18.50;99.90
7155;DHT22;3619;53.784;10.440;2023-05-29T13:15:06;18.60;99.90
7155;DHT22;3619;53.784;10.440;2023-05-29T13:17:33;18.50;99.90
7155;DHT22;3619;53.784;10.440;2023-05-29T13:20:01;18.40;99.90
7155;DHT22;3619;53.784;10.440;2023-05-29T13:22:31;18.50;99.90
7155;DHT22;3619;53.784;10.440;2023-05-29T13:25:00;18.50;99.90
7155;DHT22;3619;53.784;10.440;2023-05-29T13:27:31;18.50;99.90
7155;DHT22;3619;53.784;10.440;2023-05-29T13:29:58;18.80;99.90
7155;DHT22;3619;53.784;10.440;2023-05-29T13:32:24;19.10;99.90
7155;DHT22;3619;53.784;10.440;2023-05-29T13:34:52;19.00;99.90
7155;DHT22;3619;53.784;10.440;2023-05-29T13:37:19;18.80;99.90
7155;DHT22;3619;53.784;10.440;2023-05-29T13:39:46;18.70;99.90
7155;DHT22;3619;53.784;10.440;2023-05-29T13:42:14;18.60;99.90
7155;DHT22;3619;53.784;10.440;2023-05-29T13:44:43;18.60;99.90
7155;DHT22;3619;53.784;10.440;2023-05-29T13:47:10;18.50;99.90
7155;DHT22;3619;53.784;10.440;2023-05-29T13:49:37;18.40;99.90
7155;DHT22;3619;53.784;10.440;2023-05-29T13:52:04;18.50;99.90
7155;DHT22;3619;53.784;10.440;2023-05-29T13:54:31;18.80;99.90
7155;DHT22;3619;53.784;10.440;2023-05-29T13:57:01;19.30;99.90
7155;DHT22;3619;53.784;10.440;2023-05-29T13:59:29;19.50;99.90
7155;DHT22;3619;53.784;10.440;2023-05-29T14:01:57;20.00;99.90
7155;DHT22;3619;53.784;10.440;2023-05-29T14:04:24;19.70;99.90
7155;DHT22;3619;53.784;10.440;2023-05-29T14:06:50;19.50;99.90
7155;DHT22;3619;53.784;10.440;2023-05-29T14:09:20;19.30;99.90
7155;DHT22;3619;53.784;10.440;2023-05-29T14:11:54;19.70;99.90
7155;DHT22;3619;53.784;10.440;2023-05-29T14:14:21;20.10;99.90
7155;DHT22;3619;53.784;10.440;2023-05-29T14:16:48;20.20;99.90
7155;DHT22;3619;53.784;10.440;2023-05-29T14:19:17;19.80;99.90
7155;DHT22;3619;53.784;10.440;2023-05-29T14:21:44;19.50;99.90
7155;DHT22;3619;53.784;10.440;2023-05-29T14:24:10;19.50;99.90
7155;DHT22;3619;53.784;10.440;2023-05-29T14:26:38;19.60;99.90
7155;DHT22;3619;53.784;10.440;2023-05-29T14:29:05;19.50;99.90
7155;DHT22;3619;53.784;10.440;2023-05-29T14:31:32;19.20;99.90
7155;DHT22;3619;53.784;10.440;2023-05-29T14:34:00;19.00;99.90
7155;DHT22;3619;53.784;10.440;2023-05-29T14:36:28;19.00;99.90
7155;DHT22;3619;53.784;10.440;2023-05-29T14:38:55;19.10;99.90
7155;DHT22;3619;53.784;10.440;2023-05-29T14:41:24;19.20;99.90
7155;DHT22;3619;53.784;10.440;2023-05-29T14:43:50;19.30;99.90
7155;DHT22;3619;53.784;10.440;2023-05-29T14:46:20;19.20;99.90
7155;DHT22;3619;53.784;10.440;2023-05-29T14:48:47;19.30;99.90
7155;DHT22;3619;53.784;10.440;2023-05-29T14:51:14;19.30;99.90
7155;DHT22;3619;53.784;10.440;2023-05-29T14:53:44;19.10;99.90
7155;DHT22;3619;53.784;10.440;2023-05-29T14:56:11;19.00;99.90
7155;DHT22;3619;53.784;10.440;2023-05-29T14:58:39;19.00;99.90
7155;DHT22;3619;53.784;10.440;2023-05-29T15:01:06;19.10;99.10
7155;DHT22;3619;53.784;10.440;2023-05-29T15:03:34;19.20;99.90
7155;DHT22;3619;53.784;10.440;2023-05-29T15:06:01;19.30;99.90
7155;DHT22;3619;53.784;10.440;2023-05-29T15:08:27;19.20;99.90
7155;DHT22;3619;53.784;10.440;2023-05-29T15:10:58;19.30;99.90
7155;DHT22;3619;53.784;10.440;2023-05-29T15:13:25;19.50;99.90
7155;DHT22;3619;53.784;10.440;2023-05-29T15:15:52;19.50;99.90
7155;DHT22;3619;53.784;10.440;2023-05-29T15:18:23;19.40;99.70
7155;DHT22;3619;53.784;10.440;2023-05-29T15:20:50;19.30;99.10
7155;DHT22;3619;53.784;10.440;2023-05-29T15:23:18;19.10;99.90
7155;DHT22;3619;53.784;10.440;2023-05-29T15:25:47;19.20;96.80
7155;DHT22;3619;53.784;10.440;2023-05-29T15:28:16;19.20;95.60
7155;DHT22;3619;53.784;10.440;2023-05-29T15:30:43;19.30;96.90
7155;DHT22;3619;53.784;10.440;2023-05-29T15:33:11;19.50;97.90
7155;DHT22;3619;53.784;10.440;2023-05-29T15:35:39;19.60;97.70
7155;DHT22;3619;53.784;10.440;2023-05-29T15:38:07;19.60;99.10
7155;DHT22;3619;53.784;10.440;2023-05-29T15:40:35;19.80;98.10
7155;DHT22;3619;53.784;10.440;2023-05-29T15:43:04;19.80;98.80
7155;DHT22;3619;53.784;10.440;2023-05-29T15:45:32;19.50;99.90
7155;DHT22;3619;53.784;10.440;2023-05-29T15:47:59;19.30;99.90
7155;DHT22;3619;53.784;10.440;2023-05-29T15:50:28;19.10;99.90
7155;DHT22;3619;53.784;10.440;2023-05-29T15:52:55;19.00;99.90
7155;DHT22;3619;53.784;10.440;2023-05-29T15:55:22;19.10;99.90
7155;DHT22;3619;53.784;10.440;2023-05-29T15:57:48;19.20;99.90
7155;DHT22;3619;53.784;10.440;2023-05-29T16:00:16;19.30;99.90
7155;DHT22;3619;53.784;10.440;2023-05-29T16:02:44;19.30;99.90
7155;DHT22;3619;53.784;10.440;2023-05-29T16:05:11;19.40;99.90
7155;DHT22;3619;53.784;10.440;2023-05-29T16:07:38;19.60;99.90